Time;durP1;ratioP1;P1;durP2;ratioP2;P2;SDS_P1;SDS_P2;PMS_P1;PMS_P2;Temp;Humidity;BMP_temperature;BMP_pressure;BME280_temperature;BME280_humidity;BME280_pressure;Samples;Min_cycle;Max_cycle;Signal;HPM_P1;HPM_P2
2022/02/07 00:01:00;;;;;;;0.57;0.57;;;;;;;1.81;100.00;98014.28;5152183;27;20046;-87
2022/02/07 00:03:42;;;;;;;0.50;0.50;;;;;;;1.77;100.00;98027.97;5133313;27;20390;-88
2022/02/07 00:06:09;;;;;;;1.45;0.60;;;;;;;1.92;100.00;98038.16;5142517;27;20059;-87
2022/02/07 00:08:36;;;;;;;1.02;0.70;;;;;;;1.98;100.00;98039.38;5146901;27;20497;-87
2022/02/07 00:11:22;;;;;;;0.60;0.60;;;;;;;2.00;100.00;98048.91;5155056;27;20106;-93
2022/02/07 00:14:01;;;;;;;0.73;0.52;;;;;;;1.99;100.00;98041.88;5149964;27;20055;-88
2022/02/07 00:16:33;;;;;;;0.80;0.80;;;;;;;2.11;100.00;98043.28;5135924;27;20050;-89
2022/02/07 00:19:05;;;;;;;2.78;0.60;;;;;;;1.98;100.00;98017.91;5145648;27;20413;-89
2022/02/07 00:21:32;;;;;;;0.70;0.70;;;;;;;2.08;100.00;98026.69;5149530;27;20046;-88
2022/02/07 00:23:59;;;;;;;1.02;1.02;;;;;;;2.08;100.00;98032.06;5150768;27;20050;-88
2022/02/07 00:26:26;;;;;;;0.80;0.80;;;;;;;2.15;100.00;98067.09;5145631;27;20042;-88
2022/02/07 00:28:54;;;;;;;0.95;0.70;;;;;;;2.10;100.00;98083.66;5145902;27;20137;-87
2022/02/07 00:31:23;;;;;;;2.90;0.68;;;;;;;2.23;100.00;98091.28;5146387;27;20521;-88
2022/02/07 00:33:53;;;;;;;0.80;0.80;;;;;;;2.31;100.00;98077.94;5145221;27;20051;-87
2022/02/07 00:36:22;;;;;;;0.50;0.50;;;;;;;2.37;100.00;98068.41;5145793;27;20099;-87
2022/02/07 00:38:53;;;;;;;0.50;0.50;;;;;;;2.45;100.00;98073.81;5148753;27;20043;-87
2022/02/07 00:41:33;;;;;;;1.20;0.73;;;;;;;2.54;100.00;98082.75;5138621;27;20108;-86
2022/02/07 00:44:10;;;;;;;0.65;0.57;;;;;;;2.44;100.00;98072.16;5145433;27;20137;-87
2022/02/07 00:46:46;;;;;;;1.52;0.70;;;;;;;2.47;100.00;98064.59;5149328;27;20558;-87
2022/02/07 00:49:13;;;;;;;0.55;0.55;;;;;;;2.45;100.00;98049.66;5138337;27;20401;-87
2022/02/07 00:51:43;;;;;;;0.60;0.60;;;;;;;2.57;100.00;98069.84;5148776;27;20074;-87
2022/02/07 00:54:10;;;;;;;0.40;0.40;;;;;;;2.51;100.00;98053.56;5150333;27;20054;-87
2022/02/07 00:56:37;;;;;;;0.40;0.40;;;;;;;2.57;100.00;98069.84;5146012;27;20200;-87
2022/02/07 00:59:04;;;;;;;3.88;0.93;;;;;;;2.53;100.00;98081.91;5153351;27;20477;-87
2022/02/07 01:01:32;;;;;;;0.93;0.80;;;;;;;2.53;100.00;98102.50;5152831;27;20045;-87
2022/02/07 01:04:01;;;;;;;0.43;0.40;;;;;;;2.51;100.00;98112.56;5145555;27;20095;-87
2022/02/07 01:06:29;;;;;;;3.15;0.70;;;;;;;2.53;100.00;98132.03;5153349;27;20070;-87
2022/02/07 01:09:11;;;;;;;1.65;0.88;;;;;;;2.47;100.00;98129.00;5150014;27;20062;-87
2022/02/07 01:11:52;;;;;;;0.60;0.60;;;;;;;2.58;100.00;98141.28;5138489;27;20096;-87
2022/02/07 01:14:31;;;;;;;1.55;0.63;;;;;;;2.55;100.00;98155.03;5156382;27;20417;-87
2022/02/07 01:53:24;;;;;;;1.48;0.65;;;;;;;2.74;100.00;98274.75;5146815;27;20043;-87
2022/02/07 01:56:01;;;;;;;0.70;0.70;;;;;;;2.65;100.00;98281.91;5148476;27;20062;-87
2022/02/07 01:58:29;;;;;;;0.50;0.50;;;;;;;2.68;100.00;98304.91;5151200;27;20047;-87
2022/02/07 02:00:56;;;;;;;1.67;0.70;;;;;;;2.79;100.00;98317.22;5144444;27;20185;-86
2022/02/07 02:03:24;;;;;;;1.33;0.82;;;;;;;2.76;100.00;98325.59;5147354;27;20046;-86
2022/02/07 02:05:53;;;;;;;0.68;0.63;;;;;;;2.74;100.00;98330.25;5151553;27;20134;-86
2022/02/07 02:08:23;;;;;;;0.40;0.40;;;;;;;2.77;100.00;98341.53;5153676;27;20073;-86
2022/02/07 02:11:00;;;;;;;0.50;0.50;;;;;;;2.79;100.00;98357.50;5140107;27;20069;-88
2022/02/07 02:13:38;;;;;;;8.98;0.70;;;;;;;2.70;100.00;98359.25;5138515;27;20370;-86
2022/02/07 02:16:16;;;;;;;4.13;1.15;;;;;;;2.56;100.00;98351.75;5152914;27;20381;-87
2022/02/07 02:32:59;;;;;;;1.50;0.70;;;;;;;2.28;100.00;98400.94;5144977;27;20088;-86
2022/02/07 02:35:51;;;;;;;0.60;0.60;;;;;;;2.29;100.00;98386.53;5145843;27;20058;-87
2022/02/07 02:38:26;;;;;;;2.92;0.60;;;;;;;2.39;100.00;98412.44;5146131;27;20047;-86
2022/02/07 02:46:34;;;;;;;2.15;0.60;;;;;;;2.40;100.00;98460.59;5135067;27;20546;-86
2022/02/07 02:49:02;;;;;;;4.38;0.90;;;;;;;2.32;100.00;98432.81;5172263;27;20042;-85
2022/02/07 02:51:35;;;;;;;10.35;1.15;;;;;;;2.37;100.00;98452.84;5151986;27;20079;-86
2022/02/07 02:54:01;;;;;;;3.53;1.33;;;;;;;2.31;100.00;98450.75;5144699;27;20567;-86
2022/02/07 02:56:30;;;;;;;0.50;0.50;;;;;;;2.41;100.00;98478.38;5153857;27;20477;-87
2022/02/07 02:58:59;;;;;;;2.45;0.80;;;;;;;2.42;100.00;98485.41;5150299;27;20068;-86
2022/02/07 03:01:28;;;;;;;2.25;0.75;;;;;;;2.37;100.00;98474.28;5144589;27;20039;-87
2022/02/07 03:03:58;;;;;;;1.60;0.70;;;;;;;2.28;100.00;98492.13;5142649;27;20075;-86
2022/02/07 03:06:24;;;;;;;3.78;0.88;;;;;;;2.14;100.00;98506.03;5150905;27;20518;-87
2022/02/07 03:08:54;;;;;;;1.30;0.75;;;;;;;2.20;100.00;98543.00;5151391;27;20146;-86
2022/02/07 03:11:24;;;;;;;0.50;0.50;;;;;;;2.04;100.00;98545.44;5151911;27;20043;-86
2022/02/07 03:13:54;;;;;;;2.55;0.80;;;;;;;2.05;100.00;98541.78;5151372;27;20054;-87
2022/02/07 03:16:38;;;;;;;2.92;0.80;;;;;;;2.02;100.00;98547.41;5154184;27;20129;-87
2022/02/07 03:19:07;;;;;;;6.63;1.27;;;;;;;2.04;100.00;98562.38;5131620;27;20398;-86
2022/02/07 03:21:33;;;;;;;4.75;1.08;;;;;;;2.11;100.00;98582.25;5134750;27;20088;-86
2022/02/07 03:24:02;;;;;;;2.67;0.80;;;;;;;2.03;100.00;98582.16;5148669;27;20079;-86
2022/02/07 03:26:29;;;;;;;6.75;1.58;;;;;;;1.98;100.00;98579.03;5147053;27;20509;-86
2022/02/07 03:28:58;;;;;;;2.47;0.73;;;;;;;2.10;100.00;98610.06;5150300;27;20081;-86
2022/02/07 03:31:24;;;;;;;2.58;0.60;;;;;;;2.03;100.00;98611.63;5150668;27;20058;-86
2022/02/07 03:33:51;;;;;;;1.05;0.60;;;;;;;1.99;100.00;98620.94;5132219;27;20074;-87
2022/02/07 03:36:19;;;;;;;0.70;0.70;;;;;;;1.84;100.00;98622.38;5132076;27;20071;-86
2022/02/07 03:38:47;;;;;;;3.40;0.80;;;;;;;1.78;100.00;98637.19;5147279;27;20331;-87
2022/02/07 03:41:14;;;;;;;0.50;0.50;;;;;;;1.69;100.00;98654.13;5150320;27;20130;-86
2022/02/07 03:43:41;;;;;;;7.45;0.70;;;;;;;1.67;100.00;98669.47;5147188;27;20078;-87
2022/02/07 03:46:10;;;;;;;1.00;0.60;;;;;;;1.75;100.00;98699.97;5141268;27;20493;-86
2022/02/07 03:48:40;;;;;;;1.75;0.50;;;;;;;1.69;100.00;98691.66;5152971;27;20055;-87
2022/02/07 03:51:08;;;;;;;;;;;;;;;1.78;100.00;98720.28;5147057;27;20553;-87
2022/02/07 03:53:38;;;;;;;0.85;0.60;;;;;;;1.65;100.00;98717.03;5144844;27;19958;-88
2022/02/07 03:56:05;;;;;;;;;;;;;;;1.70;100.00;98741.56;5136729;27;20653;-87
2022/02/07 03:58:35;;;;;;;1.92;0.73;;;;;;;1.58;100.00;98740.81;5148820;27;20017;-86
2022/02/07 04:01:02;;;;;;;;;;;;;;;1.65;100.00;98763.41;5152013;27;20059;-86
2022/02/07 04:03:32;;;;;;;2.70;0.90;;;;;;;1.49;100.00;98768.44;5151253;27;20019;-86
2022/02/07 04:06:05;;;;;;;0.75;0.52;;;;;;;1.41;100.00;98766.47;5127418;27;20047;-86
2022/02/07 04:08:39;;;;;;;0.85;0.75;;;;;;;1.32;100.00;98761.91;5133254;27;20051;-86
2022/02/07 04:11:14;;;;;;;5.57;0.70;;;;;;;1.36;100.00;98780.25;5150902;27;20070;-86
2022/02/07 04:13:47;;;;;;;0.70;0.70;;;;;;;1.16;100.00;98774.00;5146708;27;20091;-86
2022/02/07 04:16:15;;;;;;;0.60;0.60;;;;;;;1.25;100.00;98815.19;5149781;27;20078;-86
2022/02/07 04:19:00;;;;;;;0.60;0.60;;;;;;;1.13;100.00;98814.44;5139267;27;20458;-86
2022/02/07 04:21:44;;;;;;;1.33;0.75;;;;;;;1.08;100.00;98799.72;5129831;28;20073;-86
2022/02/07 04:24:15;;;;;;;1.10;0.65;;;;;;;1.01;100.00;98824.38;5147721;27;20039;-86
2022/02/07 04:26:42;;;;;;;0.90;0.65;;;;;;;0.95;100.00;98816.88;5153836;27;20134;-86
2022/02/07 04:29:09;;;;;;;0.70;0.70;;;;;;;1.01;100.00;98820.81;5153698;27;20099;-86
2022/02/07 04:31:37;;;;;;;0.68;0.68;;;;;;;0.99;100.00;98839.69;5156933;27;20062;-86
2022/02/07 04:34:05;;;;;;;0.60;0.60;;;;;;;1.03;100.00;98856.34;5148206;27;20130;-87
2022/02/07 04:36:32;;;;;;;0.73;0.70;;;;;;;0.99;100.00;98870.97;5137984;27;20129;-86
2022/02/07 04:39:02;;;;;;;0.63;0.63;;;;;;;0.93;100.00;98876.84;5136768;27;20043;-86
2022/02/07 04:41:29;;;;;;;2.92;1.58;;;;;;;1.00;100.00;98894.09;5135207;27;20051;-86
2022/02/07 04:44:02;;;;;;;1.02;0.88;;;;;;;1.08;100.00;98918.38;5141730;27;20039;-87
2022/02/07 04:46:42;;;;;;;2.45;0.90;;;;;;;0.95;100.00;98902.53;5152154;27;20051;-87
2022/02/07 04:49:22;;;;;;;4.00;0.82;;;;;;;1.08;100.00;98909.50;5160452;27;20443;-87
2022/02/07 04:51:56;;;;;;;1.10;1.08;;;;;;;1.02;100.00;98930.47;5152652;27;20055;-87
2022/02/07 04:54:52;;;;;;;1.73;0.90;;;;;;;1.03;100.00;98926.81;5152573;27;20043;-86
2022/02/07 04:57:46;;;;;;;0.88;0.88;;;;;;;1.07;100.00;98962.22;5136680;27;20486;-86
2022/02/07 05:00:30;;;;;;;1.38;0.85;;;;;;;0.92;100.00;98944.75;5137277;27;20043;-86
2022/02/07 05:03:05;;;;;;;1.50;0.95;;;;;;;0.95;100.00;98960.53;5153272;27;20051;-87
2022/02/07 05:13:50;;;;;;;0.55;0.50;;;;;;;0.86;100.00;98999.66;5154157;27;20141;-87
2022/02/07 05:16:22;;;;;;;4.07;1.13;;;;;;;0.86;100.00;99011.19;5146864;27;20131;-86
2022/02/07 05:18:53;;;;;;;2.58;0.80;;;;;;;0.80;100.00;99009.03;5151221;27;20137;-86
2022/02/07 05:21:22;;;;;;;0.95;0.88;;;;;;;0.85;100.00;99019.34;5144725;27;20046;-86
2022/02/07 05:23:49;;;;;;;1.27;0.93;;;;;;;0.72;100.00;99016.00;5154505;27;20051;-86
2022/02/07 05:26:16;;;;;;;1.77;0.90;;;;;;;0.78;100.00;99036.88;5152560;27;20078;-87
2022/02/07 05:28:43;;;;;;;3.38;1.10;;;;;;;0.80;100.00;99037.59;5144436;27;20053;-86
2022/02/07 05:31:11;;;;;;;3.67;1.17;;;;;;;0.80;100.00;99041.16;5134438;27;20087;-86
2022/02/07 05:33:39;;;;;;;3.53;1.20;;;;;;;0.90;100.00;99051.09;5143408;27;20054;-86
2022/02/07 05:36:09;;;;;;;4.00;0.88;;;;;;;0.88;100.00;99059.25;5154361;27;20046;-86
2022/02/07 05:38:40;;;;;;;7.40;1.40;;;;;;;0.76;100.00;99053.06;5152920;27;20091;-86
2022/02/07 05:41:09;;;;;;;3.38;1.15;;;;;;;0.92;100.00;99095.50;5153960;27;20470;-86
2022/02/07 05:43:44;;;;;;;2.22;1.38;;;;;;;0.85;100.00;99071.06;5152398;27;20042;-86
2022/02/07 05:46:11;;;;;;;5.25;1.30;;;;;;;0.75;100.00;99070.09;5135637;27;20051;-86
2022/02/07 05:48:41;;;;;;;6.05;1.40;;;;;;;0.79;100.00;99081.41;5160298;27;20073;-86
2022/02/07 05:51:09;;;;;;;4.78;1.20;;;;;;;0.83;100.00;99080.19;5154398;27;20055;-87
2022/02/07 05:53:37;;;;;;;2.10;1.27;;;;;;;0.80;100.00;99086.66;5143724;27;20043;-86
2022/02/07 05:56:05;;;;;;;5.72;1.40;;;;;;;0.73;100.00;99095.31;5148019;27;20099;-86
2022/02/07 05:58:33;;;;;;;3.15;1.13;;;;;;;0.65;100.00;99093.25;5153377;27;20115;-86
2022/02/07 06:00:59;;;;;;;3.47;1.00;;;;;;;0.74;100.00;99110.34;5150048;27;20091;-86
2022/02/07 06:03:26;;;;;;;1.98;1.15;;;;;;;0.76;100.00;99111.94;5152595;27;20051;-88
2022/02/07 06:05:53;;;;;;;9.25;2.08;;;;;;;0.72;100.00;99123.88;5144054;27;20406;-86
2022/02/07 06:08:20;;;;;;;9.15;3.17;;;;;;;0.84;100.00;99151.47;5143557;27;20053;-86
2022/02/07 06:10:50;;;;;;;2.50;1.70;;;;;;;0.76;100.00;99148.56;5153055;27;20047;-88
2022/02/07 06:13:18;;;;;;;3.97;1.17;;;;;;;0.65;100.00;99157.47;5150826;27;20046;-87
2022/02/07 06:15:46;;;;;;;8.02;2.10;;;;;;;0.70;100.00;99163.28;5147230;27;20172;-86
2022/02/07 06:18:17;;;;;;;4.18;1.48;;;;;;;0.69;100.00;99159.78;5144883;27;20066;-86
2022/02/07 06:20:44;;;;;;;9.85;2.92;;;;;;;0.74;100.00;99175.47;5153483;27;20231;-84
2022/02/07 06:23:14;;;;;;;4.90;2.33;;;;;;;0.82;100.00;99188.22;5148773;27;20046;-86
2022/02/07 06:25:41;;;;;;;8.93;1.45;;;;;;;0.92;100.00;99174.94;5151090;27;20053;-89
2022/02/07 06:28:09;;;;;;;3.67;1.02;;;;;;;0.93;100.00;99182.84;5151226;27;20051;-88
2022/02/07 06:30:37;;;;;;;6.20;1.60;;;;;;;1.08;100.00;99193.31;5152006;27;20106;-89
2022/02/07 06:33:06;;;;;;;3.65;1.60;;;;;;;0.98;100.00;99172.63;5155201;27;20076;-89
2022/02/07 06:35:36;;;;;;;4.83;1.50;;;;;;;0.99;100.00;99182.34;5151368;27;20039;-88
2022/02/07 06:38:06;;;;;;;8.45;1.33;;;;;;;0.94;100.00;99178.38;5151912;27;20043;-85
2022/02/07 06:40:32;;;;;;;1.73;1.20;;;;;;;0.88;100.00;99174.34;5153733;27;20461;-87
2022/02/07 06:42:59;;;;;;;4.80;1.30;;;;;;;0.92;100.00;99185.66;5152587;27;20050;-87
2022/02/07 06:45:28;;;;;;;8.35;2.08;;;;;;;1.03;100.00;99204.41;5152073;27;20047;-86
2022/02/07 06:47:55;;;;;;;3.25;1.05;;;;;;;0.95;100.00;99202.34;5147361;27;20106;-87
2022/02/07 06:50:22;;;;;;;4.18;0.95;;;;;;;1.00;100.00;99193.94;5151899;27;20054;-87
2022/02/07 06:52:50;;;;;;;2.35;0.95;;;;;;;1.13;100.00;99200.00;5148331;27;20055;-86
2022/02/07 06:55:17;;;;;;;2.17;1.42;;;;;;;1.23;100.00;99230.44;5131913;27;20055;-87
2022/02/07 06:57:43;;;;;;;3.40;1.27;;;;;;;1.24;100.00;99225.91;5164396;27;20139;-86
2022/02/07 07:00:14;;;;;;;1.33;0.90;;;;;;;1.22;100.00;99235.91;5141495;27;20039;-86
2022/02/07 07:02:43;;;;;;;6.03;1.20;;;;;;;1.30;100.00;99243.31;5141623;27;20549;-85
2022/02/07 07:05:13;;;;;;;5.33;1.67;;;;;;;1.33;100.00;99264.50;5152005;27;20042;-87
2022/02/07 07:07:40;;;;;;;6.97;1.20;;;;;;;1.33;100.00;99264.50;5132711;27;20301;-86
2022/02/07 07:10:09;;;;;;;6.13;1.40;;;;;;;1.34;100.00;99275.09;5132537;27;20101;-86
2022/02/07 07:12:36;;;;;;;3.45;1.13;;;;;;;1.20;100.00;99252.06;5142902;27;20035;-86
2022/02/07 07:15:12;;;;;;;6.50;1.20;;;;;;;1.25;100.00;99265.13;5146271;27;20500;-86
2022/02/07 07:17:46;;;;;;;5.68;1.15;;;;;;;1.21;100.00;99263.66;5132802;27;20142;-93
2022/02/07 07:20:13;;;;;;;9.57;2.05;;;;;;;1.08;100.00;99270.97;5140990;27;20493;-86
2022/02/07 07:22:41;;;;;;;1.85;1.10;;;;;;;1.09;100.00;99270.84;5145516;27;20051;-87
2022/02/07 07:25:14;;;;;;;2.15;1.65;;;;;;;1.15;100.00;99293.59;5144695;27;20050;-86
2022/02/07 07:27:55;;;;;;;5.95;2.08;;;;;;;1.16;100.00;99309.56;5150844;27;20481;-85
2022/02/07 07:30:24;;;;;;;4.85;1.30;;;;;;;1.23;100.00;99309.91;5149729;27;20051;-86
2022/02/07 07:32:57;;;;;;;4.05;1.30;;;;;;;1.29;100.00;99309.41;5152722;27;20145;-87
2022/02/07 07:35:24;;;;;;;3.38;1.65;;;;;;;1.28;100.00;99313.09;5151708;27;20054;-87
2022/02/07 07:37:53;;;;;;;11.50;1.60;;;;;;;1.21;100.00;99318.06;5147002;27;20443;-86
2022/02/07 07:40:23;;;;;;;2.35;0.82;;;;;;;1.29;100.00;99313.94;5142324;27;20055;-86
2022/02/07 07:42:53;;;;;;;4.45;1.88;;;;;;;1.39;100.00;99320.25;5150769;27;20481;-85
2022/02/07 07:45:23;;;;;;;7.13;1.73;;;;;;;1.51;100.00;99345.22;5149874;27;20047;-86
2022/02/07 07:47:58;;;;;;;7.78;1.48;;;;;;;1.34;100.00;99331.34;5148844;27;20051;-85
2022/02/07 07:50:29;;;;;;;5.45;1.27;;;;;;;1.48;100.00;99354.34;5145888;27;20054;-86
2022/02/07 08:01:36;;;;;;;5.03;1.25;;;;;;;1.35;100.00;99372.38;5142202;27;20120;-87
2022/02/07 08:04:10;;;;;;;6.30;2.13;;;;;;;1.41;100.00;99378.09;5140613;27;20058;-85
2022/02/07 08:06:46;;;;;;;7.85;1.80;;;;;;;1.43;100.00;99369.94;5151570;27;20043;-85
2022/02/07 08:09:23;;;;;;;9.68;1.50;;;;;;;1.40;100.00;99371.03;5152524;27;20042;-84
2022/02/07 08:11:51;;;;;;;8.90;1.88;;;;;;;1.46;100.00;99392.94;5153725;27;20047;-85
2022/02/07 08:14:21;;;;;;;17.15;7.22;;;;;;;1.53;100.00;99400.38;5147242;27;20053;-86
2022/02/07 08:16:52;;;;;;;4.60;1.55;;;;;;;1.55;100.00;99400.25;5146905;27;20401;-85
2022/02/07 08:19:23;;;;;;;3.92;1.30;;;;;;;1.68;100.00;99433.16;5158725;27;20057;-86
2022/02/07 08:21:50;;;;;;;7.78;1.85;;;;;;;1.67;100.00;99426.09;5172473;27;20042;-85
2022/02/07 08:24:20;;;;;;;9.10;2.88;;;;;;;1.72;100.00;99420.38;5154491;27;20346;-85
2022/02/07 08:26:48;;;;;;;6.85;1.70;;;;;;;1.76;100.00;99438.78;5140156;27;20121;-86
2022/02/07 08:29:15;;;;;;;10.52;2.22;;;;;;;1.80;100.00;99433.16;5148420;27;20047;-86
2022/02/07 08:31:42;;;;;;;9.00;1.27;;;;;;;1.92;100.00;99462.50;5145160;27;20504;-86
2022/02/07 08:34:09;;;;;;;3.47;1.17;;;;;;;1.86;100.00;99444.25;5149820;27;20103;-86
2022/02/07 08:36:37;;;;;;;6.70;1.35;;;;;;;1.84;100.00;99451.56;5149117;27;20054;-86
2022/02/07 08:39:04;;;;;;;6.13;1.25;;;;;;;2.02;100.00;99477.88;5150616;27;20152;-86
2022/02/07 08:41:31;;;;;;;4.00;1.35;;;;;;;2.08;100.00;99494.34;5151708;27;20047;-86
2022/02/07 08:43:59;;;;;;;15.48;1.30;;;;;;;2.08;100.00;99483.59;5148418;27;20050;-86
2022/02/07 08:46:28;;;;;;;15.77;1.30;;;;;;;2.04;100.00;99502.75;5138457;27;20086;-87
2022/02/07 08:48:57;;;;;;;28.15;2.25;;;;;;;2.02;100.00;99507.38;5147179;27;20051;-85
2022/02/07 08:51:24;;;;;;;12.98;1.20;;;;;;;1.99;100.00;99504.94;5150646;27;20052;-86
2022/02/07 08:53:53;;;;;;;6.57;1.13;;;;;;;1.98;100.00;99498.72;5148980;27;20558;-86
2022/02/07 08:56:30;;;;;;;3.22;1.45;;;;;;;2.09;100.00;99528.25;5151267;27;20461;-86
2022/02/07 08:58:59;;;;;;;17.95;1.98;;;;;;;2.10;100.00;99532.59;5151624;27;20049;-87
2022/02/07 09:01:39;;;;;;;7.30;1.25;;;;;;;2.05;100.00;99536.66;5150866;27;20526;-86
2022/02/07 09:04:40;;;;;;;9.82;1.60;;;;;;;2.16;100.00;99547.38;5150327;27;20048;-86
2022/02/07 09:07:04;;;;;;;6.60;1.20;;;;;;;2.19;100.00;99546.28;5150536;27;20057;-86
2022/02/07 09:09:37;;;;;;;2.78;1.23;;;;;;;2.20;100.00;99546.16;5148307;27;20042;-84
2022/02/07 09:12:05;;;;;;;9.48;1.20;;;;;;;2.20;100.00;99547.97;5151826;27;20107;-84
2022/02/07 09:14:42;;;;;;;2.72;1.30;;;;;;;2.34;100.00;99557.63;5138188;27;20051;-86
2022/02/07 09:17:08;;;;;;;10.57;1.77;;;;;;;2.28;100.00;99549.06;5144350;27;20472;-85
2022/02/07 09:19:37;;;;;;;3.22;1.45;;;;;;;2.41;100.00;99551.63;5148881;27;20049;-86
2022/02/07 09:22:04;;;;;;;10.30;4.18;;;;;;;2.48;100.00;99557.34;5155457;27;20047;-85
2022/02/07 09:24:34;;;;;;;2.75;1.33;;;;;;;2.48;100.00;99566.28;5142252;27;20532;-87
2022/02/07 09:27:01;;;;;;;1.75;0.90;;;;;;;2.59;100.00;99591.38;5144184;27;20047;-86
2022/02/07 09:29:31;;;;;;;5.82;1.00;;;;;;;2.59;100.00;99589.56;5135041;27;20043;-86
2022/02/07 09:32:02;;;;;;;13.43;1.60;;;;;;;2.58;100.00;99578.94;5159707;27;20280;-86
2022/02/07 09:34:29;;;;;;;8.13;1.55;;;;;;;2.67;100.00;99574.69;5164565;27;20436;-86
2022/02/07 09:36:56;;;;;;;8.85;1.88;;;;;;;2.87;100.00;99598.06;5153597;27;20050;-86
2022/02/07 09:39:30;;;;;;;2.95;1.15;;;;;;;2.78;100.00;99583.53;5155192;27;20054;-86
2022/02/07 09:42:02;;;;;;;7.88;1.23;;;;;;;2.87;100.00;99579.25;5154996;27;20042;-87
2022/02/07 09:44:44;;;;;;;7.13;1.13;;;;;;;2.85;100.00;99570.47;5151903;27;20062;-86
2022/02/07 09:47:11;;;;;;;7.15;1.55;;;;;;;2.99;100.00;99586.28;5153349;27;20047;-86
2022/02/07 09:49:41;;;;;;;7.63;3.47;;;;;;;3.01;100.00;99583.47;5157103;27;20050;-87
2022/02/07 09:52:13;;;;;;;5.88;1.15;;;;;;;3.16;100.00;99600.16;5176587;27;20378;-89
2022/02/07 09:54:50;;;;;;;7.85;1.23;;;;;;;3.18;100.00;99590.19;5179463;27;20026;-90
2022/02/07 09:57:20;;;;;;;8.63;1.35;;;;;;;3.19;100.00;99605.28;5181349;27;20092;-89
2022/02/07 09:59:49;;;;;;;;;;;;;;;3.36;99.04;99628.09;5172730;27;20046;-88
2022/02/07 10:02:31;;;;;;;6.40;1.60;;;;;;;3.36;97.29;99645.06;5161512;27;19919;-91
2022/02/07 10:05:02;;;;;;;4.07;1.05;;;;;;;3.36;97.48;99630.78;5141875;27;20490;-90
2022/02/07 10:11:10;;;;;;;9.15;1.67;;;;;;;3.42;100.00;99641.03;4995308;28;20099;-88
2022/02/07 10:13:50;;;;;;;15.55;6.00;;;;;;;3.63;100.00;99646.44;5108671;28;20051;-89
2022/02/07 10:16:40;;;;;;;;;;;;;;;3.61;100.00;99658.31;5156513;27;20070;-90
2022/02/07 10:19:21;;;;;;;11.10;1.00;;;;;;;3.42;97.70;99651.78;5152420;27;19919;-90
2022/02/07 10:39:02;;;;;;;7.43;1.77;;;;;;;3.81;94.44;99679.00;5147649;27;20066;-90
2022/02/07 10:41:43;;;;;;;16.77;3.45;;;;;;;3.81;95.71;99670.94;5158603;27;20066;-89
2022/02/07 10:44:43;;;;;;;7.13;1.95;;;;;;;3.94;95.66;99694.97;5157335;27;20103;-90
2022/02/07 10:47:18;;;;;;;5.93;1.45;;;;;;;3.88;94.02;99706.22;5154536;27;20069;-89
2022/02/07 10:50:04;;;;;;;5.10;1.30;;;;;;;3.72;93.27;99687.84;5151897;27;20043;-89
2022/02/07 10:52:59;;;;;;;;;;;;;;;;;;;;;
2022/02/07 10:55:28;;;;;;;4.95;1.88;;;;;;;3.68;93.86;99703.38;5155963;27;20046;-89
2022/02/07 10:57:58;;;;;;;3.92;1.30;;;;;;;3.69;93.02;99720.38;5157128;27;20474;-89
2022/02/07 11:00:32;;;;;;;10.30;1.20;;;;;;;3.66;94.03;99721.47;5156327;27;20043;-89
2022/02/07 11:03:10;;;;;;;9.48;2.33;;;;;;;3.71;90.26;99739.91;5147697;27;20082;-91
2022/02/07 11:05:43;;;;;;;8.75;1.60;;;;;;;3.59;91.57;99739.09;5156634;27;20054;-89
2022/02/07 11:08:28;;;;;;;3.38;1.33;;;;;;;3.67;93.08;99755.47;5156134;27;20050;-89
2022/02/07 11:13:59;;;;;;;5.93;2.08;;;;;;;3.65;95.86;99772.69;5132429;27;20046;-89
2022/02/07 11:16:37;;;;;;;4.80;0.93;;;;;;;3.50;91.82;99777.50;5134754;27;20051;-89
2022/02/07 11:19:38;;;;;;;5.75;1.38;;;;;;;3.60;94.52;99791.91;5147709;27;20091;-90
2022/02/07 11:22:12;;;;;;;11.57;1.33;;;;;;;3.49;93.74;99792.78;5154831;27;20489;-90
2022/02/07 11:25:06;;;;;;;5.63;1.15;;;;;;;3.59;93.68;99803.63;5155226;27;20413;-88
2022/02/07 11:27:40;;;;;;;9.45;1.33;;;;;;;3.42;91.06;99807.69;5156044;27;20501;-89
2022/02/07 11:30:15;;;;;;;10.02;1.52;;;;;;;3.44;89.92;99797.66;5156314;27;20055;-89
2022/02/07 11:32:57;;;;;;;7.70;1.98;;;;;;;3.43;93.62;99803.16;5156304;27;20043;-89
2022/02/07 11:35:28;;;;;;;4.72;1.27;;;;;;;3.47;93.03;99812.69;5155594;27;20081;-89
2022/02/07 11:38:14;;;;;;;5.97;1.30;;;;;;;3.52;92.38;99837.34;5155786;27;20043;-88
2022/02/07 11:40:57;;;;;;;3.40;1.10;;;;;;;3.47;93.15;99853.00;5154113;27;20053;-89
2022/02/07 11:43:25;;;;;;;5.43;1.15;;;;;;;3.35;90.77;99836.03;5155754;27;20594;-90
2022/02/07 11:45:55;;;;;;;9.35;1.70;;;;;;;3.33;91.83;99841.53;5155691;27;20489;-89
2022/02/07 11:48:38;;;;;;;4.15;1.38;;;;;;;3.37;94.73;99860.94;5155487;27;20073;-88
2022/02/07 11:51:13;;;;;;;6.30;1.45;;;;;;;3.43;90.71;99873.88;5154821;27;20066;-89
2022/02/07 11:53:47;;;;;;;2.70;1.10;;;;;;;3.48;91.73;99877.09;5136544;27;20046;-88
2022/02/07 11:56:21;;;;;;;4.13;1.40;;;;;;;3.42;93.02;99885.63;5161201;27;20053;-88
2022/02/07 11:59:10;;;;;;;10.23;1.77;;;;;;;3.49;91.88;99894.06;5155376;27;20057;-89
2022/02/07 12:01:59;;;;;;;6.90;1.43;;;;;;;3.58;91.59;99909.44;5155657;27;20130;-88
2022/02/07 12:04:39;;;;;;;8.38;1.23;;;;;;;3.54;92.96;99881.97;5130381;27;20878;-91
2022/02/07 12:07:32;;;;;;;11.57;3.70;;;;;;;3.64;93.92;99900.06;5133341;27;20069;-90
2022/02/07 12:10:37;;;;;;;;;;;;;;;;;;;;;
2022/02/07 12:13:30;;;;;;;8.23;1.17;;;;;;;3.69;93.15;99893.34;5155297;27;20055;-89
2022/02/07 12:16:04;;;;;;;6.05;1.52;;;;;;;3.84;92.04;99901.13;5143273;27;20054;-90
2022/02/07 12:18:34;;;;;;;6.40;2.65;;;;;;;3.76;91.66;99892.84;5154929;27;20126;-89
2022/02/07 12:21:24;;;;;;;15.80;1.75;;;;;;;3.85;92.05;99905.53;5142760;27;20051;-89
2022/02/07 12:23:59;;;;;;;6.30;1.67;;;;;;;3.93;92.73;99902.22;5154597;27;20055;-89
2022/02/07 12:26:26;;;;;;;3.10;1.27;;;;;;;4.00;93.75;99909.66;5155793;27;20117;-89
2022/02/07 12:29:01;;;;;;;7.53;1.63;;;;;;;3.98;92.66;99908.09;5155596;27;20750;-89
2022/02/07 12:31:30;;;;;;;8.23;1.48;;;;;;;4.00;90.47;99936.56;5154884;27;20406;-89
2022/02/07 12:34:06;;;;;;;5.25;1.30;;;;;;;3.92;90.43;99922.91;5154273;27;20387;-89
2022/02/07 12:36:35;;;;;;;11.65;2.05;;;;;;;3.98;92.98;99916.19;5154817;27;20061;-88
2022/02/07 12:39:07;;;;;;;13.52;2.92;;;;;;;4.01;91.46;99932.91;5144952;27;20054;-89
2022/02/07 12:41:34;;;;;;;8.82;1.67;;;;;;;3.86;93.07;99920.72;5134528;27;20043;-88
2022/02/07 12:44:06;;;;;;;5.72;1.67;;;;;;;3.93;94.77;99935.38;5142057;27;20047;-86
2022/02/07 12:46:34;;;;;;;5.65;1.52;;;;;;;3.90;95.60;99928.41;5157394;27;20070;-88
2022/02/07 12:49:10;;;;;;;11.70;1.95;;;;;;;3.86;93.84;99918.03;5154296;27;20054;-89
2022/02/07 12:51:42;;;;;;;9.90;1.58;;;;;;;3.90;95.94;99916.81;5156327;27;20047;-89
2022/02/07 12:54:18;;;;;;;14.52;2.30;;;;;;;3.94;94.93;99929.00;5158038;27;20050;-88
2022/02/07 12:56:45;;;;;;;12.32;1.48;;;;;;;4.01;93.37;99948.22;5158378;27;20074;-88
2022/02/07 12:59:17;;;;;;;7.50;1.50;;;;;;;3.96;92.87;99936.94;5157932;27;20673;-89
2022/02/07 13:01:46;;;;;;;5.65;1.63;;;;;;;4.00;92.39;99936.56;5157653;27;20066;-91
2022/02/07 13:04:18;;;;;;;8.32;1.30;;;;;;;3.96;91.28;99932.44;5148099;27;20065;-88
2022/02/07 13:06:48;;;;;;;8.55;2.03;;;;;;;3.98;93.62;99930.47;5137101;27;20964;-88
2022/02/07 13:09:20;;;;;;;7.07;1.50;;;;;;;4.10;90.83;99957.38;5153837;27;20050;-89
2022/02/07 13:11:49;;;;;;;9.45;1.90;;;;;;;3.99;92.08;99924.13;5157591;27;20051;-88
2022/02/07 13:14:21;;;;;;;7.70;1.77;;;;;;;4.19;93.77;99922.50;5157363;27;20052;-89
2022/02/07 13:16:59;;;;;;;7.40;1.30;;;;;;;4.34;90.64;99935.69;5159911;27;20063;-88
2022/02/07 13:19:28;;;;;;;6.32;1.73;;;;;;;4.56;92.27;99929.38;5141490;27;20057;-89
2022/02/07 13:22:00;;;;;;;11.02;2.08;;;;;;;4.77;90.35;99950.97;5153173;27;20085;-88
2022/02/07 13:24:44;;;;;;;8.70;2.15;;;;;;;4.65;90.24;99938.53;5158042;27;20074;-88
2022/02/07 13:27:14;;;;;;;2.08;1.20;;;;;;;4.52;90.14;99957.56;5155112;27;20050;-89
2022/02/07 13:29:45;;;;;;;6.32;1.50;;;;;;;4.39;91.57;99957.69;5154343;27;20046;-89
2022/02/07 13:32:14;;;;;;;6.80;1.15;;;;;;;4.30;90.60;99963.84;5157924;27;20046;-87
2022/02/07 13:34:42;;;;;;;6.22;1.67;;;;;;;4.31;91.74;99962.88;5157346;27;20046;-87
2022/02/07 13:37:31;;;;;;;6.15;1.65;;;;;;;4.16;92.18;99957.72;5137393;27;20096;-91
2022/02/07 13:40:38;;;;;;;9.48;1.50;;;;;;;4.13;94.11;99955.28;5155778;27;20043;-89